sensor_id;sensor_type;location;lat;lon;timestamp;P1;durP1;ratioP1;P2;durP2;ratioP2
5616;SDS011;2830;50.656;7.568;2022-10-19T00:00:45;26.83;;;6.70;;
5616;SDS011;2830;50.656;7.568;2022-10-19T00:03:12;22.33;;;7.10;;
5616;SDS011;2830;50.656;7.568;2022-10-19T00:05:45;57.40;;;8.90;;
5616;SDS011;2830;50.656;7.568;2022-10-19T00:08:13;28.47;;;8.13;;
5616;SDS011;2830;50.656;7.568;2022-10-19T00:10:40;26.97;;;7.07;;
5616;SDS011;2830;50.656;7.568;2022-10-19T00:13:07;37.93;;;9.13;;
5616;SDS011;2830;50.656;7.568;2022-10-19T00:15:36;46.43;;;8.93;;
5616;SDS011;2830;50.656;7.568;2022-10-19T00:18:05;20.48;;;7.18;;
5616;SDS011;2830;50.656;7.568;2022-10-19T00:20:35;31.77;;;7.50;;
5616;SDS011;2830;50.656;7.568;2022-10-19T00:23:02;36.70;;;8.33;;
5616;SDS011;2830;50.656;7.568;2022-10-19T00:25:29;20.13;;;6.00;;
5616;SDS011;2830;50.656;7.568;2022-10-19T00:27:55;54.00;;;9.00;;
5616;SDS011;2830;50.656;7.568;2022-10-19T00:30:22;38.73;;;7.83;;
5616;SDS011;2830;50.656;7.568;2022-10-19T00:32:49;43.53;;;8.07;;
5616;SDS011;2830;50.656;7.568;2022-10-19T00:35:15;18.80;;;7.67;;
5616;SDS011;2830;50.656;7.568;2022-10-19T00:37:42;30.40;;;7.00;;
5616;SDS011;2830;50.656;7.568;2022-10-19T00:40:09;42.67;;;7.87;;
5616;SDS011;2830;50.656;7.568;2022-10-19T00:42:36;23.90;;;7.80;;
5616;SDS011;2830;50.656;7.568;2022-10-19T00:45:05;49.40;;;8.03;;
5616;SDS011;2830;50.656;7.568;2022-10-19T00:47:37;29.10;;;6.77;;
5616;SDS011;2830;50.656;7.568;2022-10-19T00:50:05;24.65;;;7.07;;
5616;SDS011;2830;50.656;7.568;2022-10-19T00:52:32;25.17;;;7.40;;
5616;SDS011;2830;50.656;7.568;2022-10-19T00:54:59;42.70;;;8.10;;
5616;SDS011;2830;50.656;7.568;2022-10-19T00:57:27;19.00;;;6.27;;
5616;SDS011;2830;50.656;7.568;2022-10-19T00:59:54;15.93;;;6.60;;
5616;SDS011;2830;50.656;7.568;2022-10-19T01:02:22;21.20;;;6.30;;
5616;SDS011;2830;50.656;7.568;2022-10-19T01:04:49;48.58;;;7.85;;
5616;SDS011;2830;50.656;7.568;2022-10-19T01:07:17;36.80;;;6.90;;
5616;SDS011;2830;50.656;7.568;2022-10-19T01:09:44;42.03;;;7.23;;
5616;SDS011;2830;50.656;7.568;2022-10-19T01:12:16;43.70;;;6.90;;
5616;SDS011;2830;50.656;7.568;2022-10-19T01:28:11;71.03;;;8.35;;
5616;SDS011;2830;50.656;7.568;2022-10-19T01:31:13;51.80;;;6.40;;
5616;SDS011;2830;50.656;7.568;2022-10-19T01:36:33;28.33;;;6.10;;
5616;SDS011;2830;50.656;7.568;2022-10-19T01:45:12;16.20;;;5.13;;
5616;SDS011;2830;50.656;7.568;2022-10-19T01:47:52;15.60;;;5.30;;
5616;SDS011;2830;50.656;7.568;2022-10-19T01:53:04;29.02;;;5.60;;
5616;SDS011;2830;50.656;7.568;2022-10-19T01:55:33;28.15;;;6.38;;
5616;SDS011;2830;50.656;7.568;2022-10-19T01:58:06;25.27;;;7.07;;
5616;SDS011;2830;50.656;7.568;2022-10-19T02:00:36;44.67;;;6.53;;
5616;SDS011;2830;50.656;7.568;2022-10-19T02:03:06;33.73;;;7.10;;
5616;SDS011;2830;50.656;7.568;2022-10-19T02:05:35;22.93;;;5.83;;
5616;SDS011;2830;50.656;7.568;2022-10-19T02:08:07;32.38;;;7.15;;
5616;SDS011;2830;50.656;7.568;2022-10-19T02:10:38;20.42;;;4.70;;
5616;SDS011;2830;50.656;7.568;2022-10-19T02:13:07;49.00;;;7.00;;
5616;SDS011;2830;50.656;7.568;2022-10-19T02:15:36;82.80;;;7.85;;
5616;SDS011;2830;50.656;7.568;2022-10-19T02:18:05;18.80;;;6.20;;
5616;SDS011;2830;50.656;7.568;2022-10-19T02:20:33;47.47;;;6.63;;
5616;SDS011;2830;50.656;7.568;2022-10-19T02:23:04;28.03;;;5.90;;
5616;SDS011;2830;50.656;7.568;2022-10-19T02:25:32;47.10;;;6.73;;
5616;SDS011;2830;50.656;7.568;2022-10-19T02:27:59;40.23;;;6.30;;
5616;SDS011;2830;50.656;7.568;2022-10-19T02:30:27;28.03;;;5.20;;
5616;SDS011;2830;50.656;7.568;2022-10-19T02:32:54;28.97;;;6.03;;
5616;SDS011;2830;50.656;7.568;2022-10-19T02:35:21;35.37;;;6.80;;
5616;SDS011;2830;50.656;7.568;2022-10-19T02:37:48;27.08;;;5.38;;
5616;SDS011;2830;50.656;7.568;2022-10-19T02:40:14;18.00;;;4.90;;
5616;SDS011;2830;50.656;7.568;2022-10-19T02:42:42;16.83;;;5.43;;
5616;SDS011;2830;50.656;7.568;2022-10-19T02:45:25;49.65;;;6.80;;
5616;SDS011;2830;50.656;7.568;2022-10-19T02:47:55;69.77;;;7.13;;
5616;SDS011;2830;50.656;7.568;2022-10-19T02:50:26;32.25;;;5.70;;
5616;SDS011;2830;50.656;7.568;2022-10-19T02:52:53;63.83;;;6.37;;
5616;SDS011;2830;50.656;7.568;2022-10-19T02:55:19;84.10;;;7.70;;
5616;SDS011;2830;50.656;7.568;2022-10-19T02:57:46;20.73;;;5.17;;
5616;SDS011;2830;50.656;7.568;2022-10-19T03:00:13;29.27;;;5.55;;
5616;SDS011;2830;50.656;7.568;2022-10-19T03:02:39;22.67;;;5.47;;
5616;SDS011;2830;50.656;7.568;2022-10-19T03:05:08;41.75;;;6.05;;
5616;SDS011;2830;50.656;7.568;2022-10-19T03:07:35;35.95;;;6.50;;
5616;SDS011;2830;50.656;7.568;2022-10-19T03:10:03;13.27;;;5.00;;
5616;SDS011;2830;50.656;7.568;2022-10-19T03:12:30;44.90;;;6.30;;
5616;SDS011;2830;50.656;7.568;2022-10-19T03:14:56;18.23;;;5.50;;
5616;SDS011;2830;50.656;7.568;2022-10-19T03:17:23;18.10;;;5.43;;
5616;SDS011;2830;50.656;7.568;2022-10-19T03:19:50;14.23;;;4.90;;
5616;SDS011;2830;50.656;7.568;2022-10-19T03:22:16;17.40;;;4.90;;
5616;SDS011;2830;50.656;7.568;2022-10-19T03:24:43;53.47;;;7.15;;
5616;SDS011;2830;50.656;7.568;2022-10-19T03:27:09;29.35;;;5.70;;
5616;SDS011;2830;50.656;7.568;2022-10-19T03:29:36;15.53;;;5.60;;
5616;SDS011;2830;50.656;7.568;2022-10-19T03:32:04;40.77;;;6.80;;
5616;SDS011;2830;50.656;7.568;2022-10-19T03:34:30;30.97;;;6.47;;
5616;SDS011;2830;50.656;7.568;2022-10-19T03:36:57;53.77;;;7.43;;
5616;SDS011;2830;50.656;7.568;2022-10-19T03:39:24;22.83;;;5.50;;
5616;SDS011;2830;50.656;7.568;2022-10-19T03:41:51;14.20;;;5.33;;
5616;SDS011;2830;50.656;7.568;2022-10-19T03:44:17;38.63;;;6.80;;
5616;SDS011;2830;50.656;7.568;2022-10-19T03:46:44;16.30;;;6.17;;
5616;SDS011;2830;50.656;7.568;2022-10-19T03:49:10;23.03;;;6.53;;
5616;SDS011;2830;50.656;7.568;2022-10-19T03:51:37;28.73;;;6.63;;
5616;SDS011;2830;50.656;7.568;2022-10-19T03:54:05;34.80;;;6.80;;
5616;SDS011;2830;50.656;7.568;2022-10-19T03:56:34;16.45;;;5.68;;
5616;SDS011;2830;50.656;7.568;2022-10-19T03:59:02;17.93;;;5.87;;
5616;SDS011;2830;50.656;7.568;2022-10-19T04:04:08;23.83;;;5.73;;
5616;SDS011;2830;50.656;7.568;2022-10-19T04:06:38;52.27;;;7.00;;
5616;SDS011;2830;50.656;7.568;2022-10-19T04:09:07;24.77;;;5.97;;
5616;SDS011;2830;50.656;7.568;2022-10-19T04:11:35;16.60;;;5.20;;
5616;SDS011;2830;50.656;7.568;2022-10-19T04:14:02;11.30;;;3.83;;
5616;SDS011;2830;50.656;7.568;2022-10-19T04:16:29;37.83;;;5.80;;
5616;SDS011;2830;50.656;7.568;2022-10-19T04:18:56;68.93;;;8.07;;
5616;SDS011;2830;50.656;7.568;2022-10-19T04:21:24;61.50;;;5.93;;
5616;SDS011;2830;50.656;7.568;2022-10-19T04:24:03;25.07;;;4.10;;
5616;SDS011;2830;50.656;7.568;2022-10-19T04:26:32;36.40;;;5.97;;
5616;SDS011;2830;50.656;7.568;2022-10-19T04:28:59;24.45;;;5.00;;
5616;SDS011;2830;50.656;7.568;2022-10-19T04:31:27;17.90;;;3.70;;
5616;SDS011;2830;50.656;7.568;2022-10-19T04:33:54;16.20;;;4.10;;
5616;SDS011;2830;50.656;7.568;2022-10-19T04:36:21;44.97;;;5.75;;
5616;SDS011;2830;50.656;7.568;2022-10-19T04:38:48;15.60;;;3.40;;
5616;SDS011;2830;50.656;7.568;2022-10-19T04:41:16;18.00;;;3.60;;
5616;SDS011;2830;50.656;7.568;2022-10-19T04:43:45;30.10;;;4.63;;
5616;SDS011;2830;50.656;7.568;2022-10-19T04:46:13;12.67;;;3.27;;
5616;SDS011;2830;50.656;7.568;2022-10-19T04:48:42;29.57;;;4.13;;
5616;SDS011;2830;50.656;7.568;2022-10-19T04:51:10;11.07;;;3.30;;
5616;SDS011;2830;50.656;7.568;2022-10-19T04:53:37;22.30;;;3.90;;
5616;SDS011;2830;50.656;7.568;2022-10-19T04:56:10;36.50;;;4.70;;
5616;SDS011;2830;50.656;7.568;2022-10-19T04:58:39;35.63;;;4.17;;
5616;SDS011;2830;50.656;7.568;2022-10-19T05:03:36;61.50;;;6.67;;
5616;SDS011;2830;50.656;7.568;2022-10-19T05:06:03;21.13;;;3.60;;
5616;SDS011;2830;50.656;7.568;2022-10-19T05:08:30;12.87;;;3.27;;
5616;SDS011;2830;50.656;7.568;2022-10-19T05:11:04;47.77;;;6.10;;
5616;SDS011;2830;50.656;7.568;2022-10-19T05:13:36;62.90;;;6.20;;
5616;SDS011;2830;50.656;7.568;2022-10-19T05:16:04;47.65;;;6.05;;
5616;SDS011;2830;50.656;7.568;2022-10-19T05:18:32;57.30;;;5.10;;
5616;SDS011;2830;50.656;7.568;2022-10-19T05:21:07;38.07;;;5.27;;
5616;SDS011;2830;50.656;7.568;2022-10-19T05:23:38;29.77;;;4.80;;
5616;SDS011;2830;50.656;7.568;2022-10-19T05:26:10;26.03;;;5.40;;
5616;SDS011;2830;50.656;7.568;2022-10-19T05:28:38;26.67;;;5.40;;
5616;SDS011;2830;50.656;7.568;2022-10-19T05:31:09;62.55;;;6.47;;
5616;SDS011;2830;50.656;7.568;2022-10-19T05:33:40;10.60;;;3.50;;
5616;SDS011;2830;50.656;7.568;2022-10-19T05:38:42;14.77;;;4.50;;
5616;SDS011;2830;50.656;7.568;2022-10-19T05:41:16;23.50;;;5.20;;
5616;SDS011;2830;50.656;7.568;2022-10-19T05:43:43;34.57;;;5.03;;
5616;SDS011;2830;50.656;7.568;2022-10-19T05:46:12;16.05;;;4.25;;
5616;SDS011;2830;50.656;7.568;2022-10-19T05:48:44;11.23;;;3.85;;
5616;SDS011;2830;50.656;7.568;2022-10-19T05:51:13;48.87;;;5.43;;
5616;SDS011;2830;50.656;7.568;2022-10-19T05:53:42;13.77;;;3.73;;
5616;SDS011;2830;50.656;7.568;2022-10-19T05:56:12;20.95;;;4.88;;
5616;SDS011;2830;50.656;7.568;2022-10-19T05:58:41;55.17;;;6.10;;
5616;SDS011;2830;50.656;7.568;2022-10-19T06:01:09;94.43;;;6.57;;
5616;SDS011;2830;50.656;7.568;2022-10-19T06:03:36;24.13;;;4.53;;
5616;SDS011;2830;50.656;7.568;2022-10-19T06:06:03;27.97;;;4.27;;
5616;SDS011;2830;50.656;7.568;2022-10-19T06:08:32;98.78;;;8.65;;
5616;SDS011;2830;50.656;7.568;2022-10-19T06:11:06;22.47;;;4.37;;
5616;SDS011;2830;50.656;7.568;2022-10-19T06:13:35;36.20;;;5.38;;
5616;SDS011;2830;50.656;7.568;2022-10-19T06:16:03;14.90;;;4.10;;
5616;SDS011;2830;50.656;7.568;2022-10-19T06:18:31;49.43;;;4.93;;
5616;SDS011;2830;50.656;7.568;2022-10-19T06:21:05;52.37;;;6.40;;
5616;SDS011;2830;50.656;7.568;2022-10-19T06:23:33;19.10;;;3.53;;
5616;SDS011;2830;50.656;7.568;2022-10-19T06:26:01;18.20;;;4.27;;
5616;SDS011;2830;50.656;7.568;2022-10-19T06:28:29;19.05;;;4.15;;
5616;SDS011;2830;50.656;7.568;2022-10-19T06:30:56;23.50;;;3.83;;
5616;SDS011;2830;50.656;7.568;2022-10-19T06:33:24;25.43;;;4.40;;
5616;SDS011;2830;50.656;7.568;2022-10-19T06:35:52;29.00;;;4.53;;
5616;SDS011;2830;50.656;7.568;2022-10-19T06:38:19;23.63;;;4.10;;
5616;SDS011;2830;50.656;7.568;2022-10-19T06:40:45;36.87;;;4.33;;
5616;SDS011;2830;50.656;7.568;2022-10-19T06:43:14;29.63;;;3.87;;
5616;SDS011;2830;50.656;7.568;2022-10-19T06:45:41;11.32;;;3.35;;
5616;SDS011;2830;50.656;7.568;2022-10-19T06:48:07;17.03;;;3.77;;
5616;SDS011;2830;50.656;7.568;2022-10-19T06:50:34;13.77;;;3.70;;
5616;SDS011;2830;50.656;7.568;2022-10-19T06:53:01;9.85;;;3.30;;
5616;SDS011;2830;50.656;7.568;2022-10-19T06:55:27;10.13;;;3.03;;
5616;SDS011;2830;50.656;7.568;2022-10-19T06:57:54;9.13;;;3.00;;
5616;SDS011;2830;50.656;7.568;2022-10-19T07:00:21;28.02;;;4.20;;
5616;SDS011;2830;50.656;7.568;2022-10-19T07:02:47;14.97;;;4.00;;
5616;SDS011;2830;50.656;7.568;2022-10-19T07:05:14;32.63;;;4.00;;
5616;SDS011;2830;50.656;7.568;2022-10-19T07:07:41;36.08;;;4.28;;
5616;SDS011;2830;50.656;7.568;2022-10-19T07:10:08;30.93;;;4.70;;
5616;SDS011;2830;50.656;7.568;2022-10-19T07:12:34;10.52;;;3.00;;
5616;SDS011;2830;50.656;7.568;2022-10-19T07:15:01;8.87;;;2.53;;
5616;SDS011;2830;50.656;7.568;2022-10-19T07:17:28;23.33;;;3.43;;
5616;SDS011;2830;50.656;7.568;2022-10-19T07:19:55;26.45;;;7.95;;
5616;SDS011;2830;50.656;7.568;2022-10-19T07:22:22;28.97;;;4.50;;
5616;SDS011;2830;50.656;7.568;2022-10-19T07:24:53;38.70;;;5.97;;
5616;SDS011;2830;50.656;7.568;2022-10-19T07:27:20;10.33;;;3.60;;
5616;SDS011;2830;50.656;7.568;2022-10-19T07:29:47;12.40;;;4.00;;
5616;SDS011;2830;50.656;7.568;2022-10-19T07:32:13;41.73;;;5.10;;
5616;SDS011;2830;50.656;7.568;2022-10-19T07:34:40;16.83;;;3.97;;
5616;SDS011;2830;50.656;7.568;2022-10-19T07:37:06;21.30;;;4.33;;
5616;SDS011;2830;50.656;7.568;2022-10-19T07:39:33;38.77;;;5.00;;
5616;SDS011;2830;50.656;7.568;2022-10-19T07:42:00;18.77;;;4.83;;
5616;SDS011;2830;50.656;7.568;2022-10-19T07:44:27;15.30;;;3.97;;
5616;SDS011;2830;50.656;7.568;2022-10-19T07:46:54;12.33;;;4.10;;
5616;SDS011;2830;50.656;7.568;2022-10-19T07:49:21;32.60;;;4.80;;
5616;SDS011;2830;50.656;7.568;2022-10-19T07:51:47;13.30;;;4.70;;
5616;SDS011;2830;50.656;7.568;2022-10-19T07:54:18;17.97;;;4.97;;
5616;SDS011;2830;50.656;7.568;2022-10-19T07:59:16;17.90;;;4.10;;
5616;SDS011;2830;50.656;7.568;2022-10-19T08:01:42;14.45;;;4.40;;
5616;SDS011;2830;50.656;7.568;2022-10-19T08:04:10;19.80;;;4.57;;
5616;SDS011;2830;50.656;7.568;2022-10-19T08:06:56;12.60;;;3.23;;
5616;SDS011;2830;50.656;7.568;2022-10-19T08:09:23;22.43;;;4.40;;
5616;SDS011;2830;50.656;7.568;2022-10-19T08:12:10;19.27;;;4.40;;
5616;SDS011;2830;50.656;7.568;2022-10-19T08:14:40;19.15;;;4.95;;
5616;SDS011;2830;50.656;7.568;2022-10-19T08:17:09;11.20;;;3.73;;
5616;SDS011;2830;50.656;7.568;2022-10-19T08:19:46;18.58;;;3.75;;
5616;SDS011;2830;50.656;7.568;2022-10-19T08:22:12;14.30;;;4.50;;
5616;SDS011;2830;50.656;7.568;2022-10-19T08:24:39;14.00;;;4.20;;
5616;SDS011;2830;50.656;7.568;2022-10-19T08:27:06;13.37;;;4.40;;
5616;SDS011;2830;50.656;7.568;2022-10-19T08:29:32;13.03;;;4.67;;
5616;SDS011;2830;50.656;7.568;2022-10-19T08:31:59;13.83;;;3.93;;
5616;SDS011;2830;50.656;7.568;2022-10-19T08:34:26;12.37;;;4.20;;
5616;SDS011;2830;50.656;7.568;2022-10-19T08:36:54;17.47;;;4.10;;
5616;SDS011;2830;50.656;7.568;2022-10-19T08:39:21;12.03;;;4.10;;
5616;SDS011;2830;50.656;7.568;2022-10-19T08:42:00;12.93;;;4.43;;
5616;SDS011;2830;50.656;7.568;2022-10-19T08:49:57;13.57;;;4.13;;
5616;SDS011;2830;50.656;7.568;2022-10-19T08:52:26;13.83;;;3.60;;
5616;SDS011;2830;50.656;7.568;2022-10-19T08:55:00;15.40;;;5.27;;
5616;SDS011;2830;50.656;7.568;2022-10-19T09:09:02;13.67;;;4.40;;
5616;SDS011;2830;50.656;7.568;2022-10-19T09:11:36;13.30;;;4.43;;
5616;SDS011;2830;50.656;7.568;2022-10-19T09:16:43;14.10;;;4.00;;
5616;SDS011;2830;50.656;7.568;2022-10-19T09:19:12;15.43;;;4.77;;
5616;SDS011;2830;50.656;7.568;2022-10-19T09:21:50;12.70;;;4.40;;
5616;SDS011;2830;50.656;7.568;2022-10-19T09:26:56;14.17;;;5.00;;
5616;SDS011;2830;50.656;7.568;2022-10-19T09:29:34;13.40;;;4.97;;
5616;SDS011;2830;50.656;7.568;2022-10-19T09:32:08;17.50;;;4.87;;
5616;SDS011;2830;50.656;7.568;2022-10-19T09:34:47;13.10;;;4.60;;
5616;SDS011;2830;50.656;7.568;2022-10-19T09:37:17;18.05;;;5.50;;
5616;SDS011;2830;50.656;7.568;2022-10-19T09:39:51;17.20;;;5.90;;
5616;SDS011;2830;50.656;7.568;2022-10-19T09:42:27;16.07;;;5.17;;
5616;SDS011;2830;50.656;7.568;2022-10-19T09:44:59;14.40;;;5.40;;
5616;SDS011;2830;50.656;7.568;2022-10-19T09:52:46;14.40;;;4.73;;
5616;SDS011;2830;50.656;7.568;2022-10-19T10:00:41;18.10;;;5.80;;
5616;SDS011;2830;50.656;7.568;2022-10-19T10:06:13;15.40;;;5.23;;
5616;SDS011;2830;50.656;7.568;2022-10-19T10:08:49;19.03;;;4.87;;
5616;SDS011;2830;50.656;7.568;2022-10-19T10:11:27;16.83;;;5.10;;
5616;SDS011;2830;50.656;7.568;2022-10-19T10:14:03;12.77;;;3.23;;
5616;SDS011;2830;50.656;7.568;2022-10-19T10:16:35;14.23;;;4.23;;
5616;SDS011;2830;50.656;7.568;2022-10-19T10:21:49;12.97;;;3.20;;
5616;SDS011;2830;50.656;7.568;2022-10-19T10:24:20;11.50;;;3.17;;
5616;SDS011;2830;50.656;7.568;2022-10-19T10:26:53;13.50;;;2.73;;
5616;SDS011;2830;50.656;7.568;2022-10-19T10:29:27;15.00;;;3.30;;
5616;SDS011;2830;50.656;7.568;2022-10-19T10:32:10;15.53;;;2.83;;
5616;SDS011;2830;50.656;7.568;2022-10-19T10:34:54;13.37;;;3.23;;
5616;SDS011;2830;50.656;7.568;2022-10-19T10:40:02;13.93;;;3.00;;
5616;SDS011;2830;50.656;7.568;2022-10-19T10:42:34;15.20;;;2.90;;
5616;SDS011;2830;50.656;7.568;2022-10-19T10:47:51;14.77;;;3.00;;
5616;SDS011;2830;50.656;7.568;2022-10-19T10:50:23;18.27;;;2.97;;
5616;SDS011;2830;50.656;7.568;2022-10-19T10:53:03;20.23;;;3.13;;
5616;SDS011;2830;50.656;7.568;2022-10-19T10:55:31;14.70;;;2.23;;
5616;SDS011;2830;50.656;7.568;2022-10-19T11:00:31;13.97;;;2.50;;
5616;SDS011;2830;50.656;7.568;2022-10-19T11:08:16;16.20;;;2.30;;
5616;SDS011;2830;50.656;7.568;2022-10-19T11:10:57;17.87;;;3.00;;
5616;SDS011;2830;50.656;7.568;2022-10-19T11:13:32;13.70;;;1.90;;
5616;SDS011;2830;50.656;7.568;2022-10-19T11:16:12;20.33;;;2.70;;
5616;SDS011;2830;50.656;7.568;2022-10-19T11:18:45;15.93;;;2.20;;
5616;SDS011;2830;50.656;7.568;2022-10-19T11:24:41;15.40;;;2.60;;
5616;SDS011;2830;50.656;7.568;2022-10-19T11:30:40;16.90;;;2.70;;
5616;SDS011;2830;50.656;7.568;2022-10-19T11:33:58;15.20;;;2.50;;
5616;SDS011;2830;50.656;7.568;2022-10-19T11:36:36;19.70;;;3.10;;
5616;SDS011;2830;50.656;7.568;2022-10-19T11:39:17;20.50;;;3.13;;
5616;SDS011;2830;50.656;7.568;2022-10-19T11:47:32;20.33;;;3.07;;
5616;SDS011;2830;50.656;7.568;2022-10-19T11:53:06;19.70;;;4.50;;
5616;SDS011;2830;50.656;7.568;2022-10-19T11:58:38;17.00;;;3.00;;
5616;SDS011;2830;50.656;7.568;2022-10-19T12:01:27;22.23;;;3.90;;
5616;SDS011;2830;50.656;7.568;2022-10-19T12:04:25;17.75;;;3.75;;
5616;SDS011;2830;50.656;7.568;2022-10-19T12:15:34;18.63;;;4.50;;
5616;SDS011;2830;50.656;7.568;2022-10-19T12:18:07;18.13;;;4.00;;
5616;SDS011;2830;50.656;7.568;2022-10-19T12:20:56;18.37;;;4.03;;
5616;SDS011;2830;50.656;7.568;2022-10-19T12:23:29;21.67;;;4.70;;
5616;SDS011;2830;50.656;7.568;2022-10-19T12:25:57;17.77;;;3.80;;
5616;SDS011;2830;50.656;7.568;2022-10-19T12:28:30;16.70;;;3.70;;
5616;SDS011;2830;50.656;7.568;2022-10-19T12:30:59;17.63;;;4.40;;
5616;SDS011;2830;50.656;7.568;2022-10-19T12:42:10;16.97;;;4.10;;
5616;SDS011;2830;50.656;7.568;2022-10-19T12:44:55;20.00;;;4.23;;
5616;SDS011;2830;50.656;7.568;2022-10-19T12:47:34;15.93;;;3.50;;
5616;SDS011;2830;50.656;7.568;2022-10-19T12:50:01;22.63;;;4.33;;
5616;SDS011;2830;50.656;7.568;2022-10-19T12:57:37;21.83;;;4.03;;
5616;SDS011;2830;50.656;7.568;2022-10-19T13:00:17;16.87;;;3.83;;
5616;SDS011;2830;50.656;7.568;2022-10-19T13:03:21;17.87;;;3.97;;
5616;SDS011;2830;50.656;7.568;2022-10-19T13:05:59;17.50;;;3.70;;
5616;SDS011;2830;50.656;7.568;2022-10-19T13:08:30;23.58;;;3.83;;
5616;SDS011;2830;50.656;7.568;2022-10-19T13:11:05;16.35;;;3.42;;
5616;SDS011;2830;50.656;7.568;2022-10-19T13:16:40;17.60;;;4.20;;
5616;SDS011;2830;50.656;7.568;2022-10-19T13:19:22;17.07;;;3.20;;
5616;SDS011;2830;50.656;7.568;2022-10-19T13:21:50;20.17;;;3.10;;
5616;SDS011;2830;50.656;7.568;2022-10-19T13:35:19;16.43;;;3.20;;
5616;SDS011;2830;50.656;7.568;2022-10-19T13:40:38;19.47;;;3.30;;
5616;SDS011;2830;50.656;7.568;2022-10-19T13:43:25;15.30;;;3.50;;
5616;SDS011;2830;50.656;7.568;2022-10-19T13:46:07;15.50;;;3.83;;
5616;SDS011;2830;50.656;7.568;2022-10-19T13:58:04;16.07;;;3.50;;
5616;SDS011;2830;50.656;7.568;2022-10-19T14:01:04;14.77;;;3.45;;
5616;SDS011;2830;50.656;7.568;2022-10-19T14:06:25;25.80;;;5.27;;
5616;SDS011;2830;50.656;7.568;2022-10-19T14:09:09;15.47;;;3.63;;
5616;SDS011;2830;50.656;7.568;2022-10-19T14:11:54;17.13;;;3.20;;
5616;SDS011;2830;50.656;7.568;2022-10-19T14:14:37;13.90;;;3.13;;
5616;SDS011;2830;50.656;7.568;2022-10-19T14:17:14;20.63;;;3.40;;
5616;SDS011;2830;50.656;7.568;2022-10-19T14:19:54;21.17;;;3.60;;
5616;SDS011;2830;50.656;7.568;2022-10-19T14:22:40;16.10;;;3.07;;
5616;SDS011;2830;50.656;7.568;2022-10-19T14:25:23;14.43;;;3.70;;
5616;SDS011;2830;50.656;7.568;2022-10-19T14:28:12;15.55;;;3.22;;
5616;SDS011;2830;50.656;7.568;2022-10-19T14:30:42;13.57;;;3.50;;
5616;SDS011;2830;50.656;7.568;2022-10-19T14:33:09;19.73;;;3.67;;
5616;SDS011;2830;50.656;7.568;2022-10-19T14:35:40;19.05;;;3.63;;
5616;SDS011;2830;50.656;7.568;2022-10-19T14:38:15;16.60;;;3.27;;
5616;SDS011;2830;50.656;7.568;2022-10-19T14:40:46;14.80;;;3.57;;
5616;SDS011;2830;50.656;7.568;2022-10-19T14:43:20;15.10;;;3.60;;
5616;SDS011;2830;50.656;7.568;2022-10-19T14:48:42;16.73;;;3.83;;
5616;SDS011;2830;50.656;7.568;2022-10-19T14:53:51;13.90;;;3.83;;
5616;SDS011;2830;50.656;7.568;2022-10-19T14:56:31;17.83;;;3.67;;
5616;SDS011;2830;50.656;7.568;2022-10-19T14:59:04;14.07;;;3.73;;
5616;SDS011;2830;50.656;7.568;2022-10-19T15:01:52;14.10;;;4.13;;
5616;SDS011;2830;50.656;7.568;2022-10-19T15:04:23;15.98;;;3.72;;
5616;SDS011;2830;50.656;7.568;2022-10-19T15:06:53;22.70;;;4.33;;
5616;SDS011;2830;50.656;7.568;2022-10-19T15:09:25;15.97;;;3.90;;
5616;SDS011;2830;50.656;7.568;2022-10-19T15:12:16;15.47;;;3.90;;
5616;SDS011;2830;50.656;7.568;2022-10-19T15:14:46;19.90;;;3.43;;
5616;SDS011;2830;50.656;7.568;2022-10-19T15:19:52;13.67;;;3.73;;
5616;SDS011;2830;50.656;7.568;2022-10-19T15:27:36;18.60;;;4.43;;
5616;SDS011;2830;50.656;7.568;2022-10-19T15:32:49;27.07;;;10.87;;
5616;SDS011;2830;50.656;7.568;2022-10-19T15:35:26;15.07;;;3.40;;
5616;SDS011;2830;50.656;7.568;2022-10-19T15:37:58;14.07;;;3.17;;
5616;SDS011;2830;50.656;7.568;2022-10-19T15:40:48;13.37;;;3.97;;
5616;SDS011;2830;50.656;7.568;2022-10-19T15:43:22;17.60;;;4.63;;
5616;SDS011;2830;50.656;7.568;2022-10-19T15:46:00;14.07;;;4.23;;
5616;SDS011;2830;50.656;7.568;2022-10-19T15:53:55;12.90;;;3.47;;
5616;SDS011;2830;50.656;7.568;2022-10-19T15:56:24;15.10;;;3.50;;
5616;SDS011;2830;50.656;7.568;2022-10-19T15:58:53;23.63;;;4.37;;
5616;SDS011;2830;50.656;7.568;2022-10-19T16:01:22;15.80;;;6.00;;
5616;SDS011;2830;50.656;7.568;2022-10-19T16:03:51;18.23;;;4.30;;
5616;SDS011;2830;50.656;7.568;2022-10-19T16:06:19;14.70;;;4.17;;
5616;SDS011;2830;50.656;7.568;2022-10-19T16:08:47;15.77;;;4.53;;
5616;SDS011;2830;50.656;7.568;2022-10-19T16:11:17;18.67;;;4.10;;
5616;SDS011;2830;50.656;7.568;2022-10-19T16:13:44;13.37;;;3.20;;
5616;SDS011;2830;50.656;7.568;2022-10-19T16:16:12;16.70;;;3.90;;
5616;SDS011;2830;50.656;7.568;2022-10-19T16:18:46;20.10;;;4.30;;
5616;SDS011;2830;50.656;7.568;2022-10-19T16:21:13;18.33;;;5.80;;
5616;SDS011;2830;50.656;7.568;2022-10-19T16:23:40;16.00;;;4.57;;
5616;SDS011;2830;50.656;7.568;2022-10-19T16:26:07;19.45;;;4.65;;
5616;SDS011;2830;50.656;7.568;2022-10-19T16:28:34;25.80;;;5.77;;
5616;SDS011;2830;50.656;7.568;2022-10-19T16:31:01;16.20;;;5.60;;
5616;SDS011;2830;50.656;7.568;2022-10-19T16:33:28;23.90;;;6.90;;
5616;SDS011;2830;50.656;7.568;2022-10-19T16:35:54;23.40;;;8.47;;
5616;SDS011;2830;50.656;7.568;2022-10-19T16:38:21;28.47;;;8.60;;
5616;SDS011;2830;50.656;7.568;2022-10-19T16:40:47;21.67;;;7.77;;
5616;SDS011;2830;50.656;7.568;2022-10-19T16:43:14;18.90;;;5.93;;
5616;SDS011;2830;50.656;7.568;2022-10-19T16:45:41;20.70;;;4.87;;
5616;SDS011;2830;50.656;7.568;2022-10-19T16:48:11;16.23;;;4.20;;
5616;SDS011;2830;50.656;7.568;2022-10-19T16:50:38;17.23;;;3.80;;
5616;SDS011;2830;50.656;7.568;2022-10-19T16:53:08;14.13;;;3.57;;
5616;SDS011;2830;50.656;7.568;2022-10-19T16:55:36;24.05;;;4.18;;
5616;SDS011;2830;50.656;7.568;2022-10-19T16:58:05;20.30;;;3.53;;
5616;SDS011;2830;50.656;7.568;2022-10-19T17:00:32;18.00;;;4.77;;
5616;SDS011;2830;50.656;7.568;2022-10-19T17:03:00;21.13;;;4.97;;
5616;SDS011;2830;50.656;7.568;2022-10-19T17:05:27;18.30;;;3.90;;
5616;SDS011;2830;50.656;7.568;2022-10-19T17:07:53;23.67;;;4.87;;
5616;SDS011;2830;50.656;7.568;2022-10-19T17:10:20;14.10;;;4.33;;
5616;SDS011;2830;50.656;7.568;2022-10-19T17:12:47;20.20;;;4.20;;
5616;SDS011;2830;50.656;7.568;2022-10-19T17:15:13;20.60;;;3.90;;
5616;SDS011;2830;50.656;7.568;2022-10-19T17:18:00;20.23;;;4.30;;
5616;SDS011;2830;50.656;7.568;2022-10-19T17:20:27;19.00;;;4.50;;
5616;SDS011;2830;50.656;7.568;2022-10-19T17:22:53;20.80;;;5.23;;
5616;SDS011;2830;50.656;7.568;2022-10-19T17:25:20;13.17;;;4.10;;
5616;SDS011;2830;50.656;7.568;2022-10-19T17:27:50;29.30;;;4.10;;
5616;SDS011;2830;50.656;7.568;2022-10-19T17:30:17;15.63;;;3.70;;
5616;SDS011;2830;50.656;7.568;2022-10-19T17:32:44;14.63;;;3.67;;
5616;SDS011;2830;50.656;7.568;2022-10-19T17:35:11;15.10;;;4.60;;
5616;SDS011;2830;50.656;7.568;2022-10-19T17:37:38;15.07;;;4.83;;
5616;SDS011;2830;50.656;7.568;2022-10-19T17:40:04;14.20;;;4.27;;
5616;SDS011;2830;50.656;7.568;2022-10-19T17:42:32;22.30;;;5.07;;
5616;SDS011;2830;50.656;7.568;2022-10-19T17:45:01;17.53;;;4.90;;
5616;SDS011;2830;50.656;7.568;2022-10-19T17:47:28;16.27;;;5.10;;
5616;SDS011;2830;50.656;7.568;2022-10-19T17:49:55;14.65;;;4.53;;
5616;SDS011;2830;50.656;7.568;2022-10-19T17:52:22;19.03;;;5.33;;
5616;SDS011;2830;50.656;7.568;2022-10-19T17:54:48;17.43;;;5.30;;
5616;SDS011;2830;50.656;7.568;2022-10-19T17:57:35;16.00;;;5.00;;
5616;SDS011;2830;50.656;7.568;2022-10-19T18:00:03;18.23;;;4.97;;
5616;SDS011;2830;50.656;7.568;2022-10-19T18:02:31;17.50;;;5.30;;
5616;SDS011;2830;50.656;7.568;2022-10-19T18:05:00;16.47;;;4.53;;
5616;SDS011;2830;50.656;7.568;2022-10-19T18:07:27;21.05;;;4.25;;
5616;SDS011;2830;50.656;7.568;2022-10-19T18:09:54;24.53;;;4.80;;
5616;SDS011;2830;50.656;7.568;2022-10-19T18:12:21;22.38;;;4.75;;
5616;SDS011;2830;50.656;7.568;2022-10-19T18:14:47;13.63;;;4.07;;
5616;SDS011;2830;50.656;7.568;2022-10-19T18:17:14;17.40;;;4.03;;
5616;SDS011;2830;50.656;7.568;2022-10-19T18:19:41;20.50;;;4.70;;